M I D A S
Marine Information and Data Acquisition System
Tripno 1681 of the Zeeleeuw from 2009-04-24 06:37:32 to 2009-04-24 08:38:40
Back to CruiseResearch ActivitiesStationsMapUnderway DataData graphs

EquipmentUnitsComment
TimeDGPSUTC
LatitudeDGPSDM.mWGS84
LongitudeDGPSDM.mWGS84
HeadingGyrodeg 
SOGDGPSknotsSpeed over ground
COGDGPSdegCourse over ground
DepthEcho soundermeters200 kHz
Missing or incorrect values are displayed as -999
Navigation data collected by the RV Zeeleeuw from 2009-04-24 06:44:10 to 2009-04-24 11:29:50
Time Latitude Longitude Heading SOG COG Depth
2009-04-24 06:45:15 51°13.68 2°55.894 111.9 3.8 292 -999
2009-04-24 06:46:15 51°13.689 2°55.803 91.9 3.4 272 -999
2009-04-24 06:47:14 51°13.693 2°55.754 58.4 0.9 12 11.3
2009-04-24 06:48:12 51°13.703 2°55.75 7.3 1.4 346 11.1
2009-04-24 06:49:11 51°13.766 2°55.693 333.7 6.7 331 8.7
2009-04-24 06:50:11 51°13.878 2°55.607 336.1 7.9 335 9.1
2009-04-24 06:51:11 51°13.998 2°55.514 335.6 7.9 334 9.1
2009-04-24 06:52:11 51°14.12 2°55.42 334.4 8.4 332 9.1
2009-04-24 06:53:11 51°14.236 2°55.292 321.9 8.7 319 9.2
2009-04-24 06:54:11 51°14.336 2°55.116 309.3 9.2 308 9.2
2009-04-24 06:55:11 51°14.422 2°54.898 299.6 10.4 291 9.1
2009-04-24 06:56:11 51°14.404 2°54.603 250.7 12.3 246 8.9
2009-04-24 06:57:11 51°14.316 2°54.297 247.1 12.9 246 7.8
2009-04-24 06:58:11 51°14.226 2°53.984 246.9 13 244 7.6
2009-04-24 06:59:11 51°14.125 2°53.675 243.6 13.2 242 7.8
2009-04-24 07:00:11 51°14.023 2°53.366 244.7 13.2 242 8
2009-04-24 07:01:11 51°13.924 2°53.054 245.4 13.2 243 8.4
2009-04-24 07:02:11 51°13.825 2°52.741 245.1 13.2 242 8.8
2009-04-24 07:03:11 51°13.721 2°52.432 243.6 13.2 242 8.9
2009-04-24 07:04:11 51°13.616 2°52.123 243.7 13.3 242 9
2009-04-24 07:05:11 51°13.512 2°51.813 244.1 13.3 242 9.1
2009-04-24 07:06:11 51°13.395 2°51.546 215.9 10.3 213 9.3
2009-04-24 07:07:11 51°13.281 2°51.483 178.5 5.3 191 9.1
2009-04-24 07:08:11 51°13.212 2°51.465 166.1 3.5 192 8.8
2009-04-24 07:09:11 51°13.162 2°51.438 175.4 3 206 8.7
2009-04-24 07:10:11 51°13.121 2°51.401 182.3 2.7 214 8.5
2009-04-24 07:11:11 51°13.083 2°51.357 192.8 3.6 213 8.5
2009-04-24 07:12:11 51°13.024 2°51.281 217.4 5.1 225 8.4
2009-04-24 07:13:11 51°12.971 2°51.174 237 5 238 8.4
2009-04-24 07:14:11 51°12.934 2°51.064 248 4.5 244 8.4
2009-04-24 07:15:11 51°12.903 2°50.964 244.2 4 242 8.4
2009-04-24 07:16:11 51°12.873 2°50.874 242.2 3.8 241 8.4
2009-04-24 07:17:11 51°12.843 2°50.786 243.1 3.7 242 8.4
2009-04-24 07:18:11 51°12.815 2°50.698 244.7 3.7 243 8.5
2009-04-24 07:19:11 51°12.787 2°50.612 245.4 3.6 243 8.5
2009-04-24 07:20:11 51°12.76 2°50.526 247.6 3.6 244 8.5
2009-04-24 07:21:11 51°12.735 2°50.44 247.9 3.6 246 8.6
2009-04-24 07:22:11 51°12.709 2°50.353 246.6 3.6 245 8.6
2009-04-24 07:23:11 51°12.683 2°50.267 245.8 3.6 244 8.6
2009-04-24 07:24:11 51°12.656 2°50.18 246.7 3.6 245 8.6
2009-04-24 07:25:11 51°12.63 2°50.093 246.7 3.7 244 8.6
2009-04-24 07:26:11 51°12.604 2°50.006 246.9 3.7 245 8.6
2009-04-24 07:27:11 51°12.579 2°49.918 249.1 3.6 246 8.7
2009-04-24 07:28:11 51°12.555 2°49.83 250.2 3.6 247 8.8
2009-04-24 07:29:11 51°12.531 2°49.742 249 3.6 246 8.8
2009-04-24 07:30:11 51°12.507 2°49.655 249.4 3.6 247 8.8
2009-04-24 07:31:11 51°12.484 2°49.568 250 3.6 247 8.9
2009-04-24 07:32:11 51°12.461 2°49.482 249.6 3.5 247 9
2009-04-24 07:33:11 51°12.438 2°49.398 249.3 3.5 246 9
2009-04-24 07:34:11 51°12.415 2°49.314 249.2 3.4 247 9.1
2009-04-24 07:35:11 51°12.392 2°49.23 249.3 3.5 247 9.2
2009-04-24 07:36:11 51°12.37 2°49.145 249.8 3.5 248 9.3
2009-04-24 07:37:11 51°12.348 2°49.061 249.6 3.4 248 9.3
2009-04-24 07:38:11 51°12.327 2°48.978 249.2 3.4 248 9.4
2009-04-24 07:39:11 51°12.306 2°48.896 248.5 3.3 248 9.5
2009-04-24 07:40:11 51°12.287 2°48.815 250.1 3.2 249 9.6
2009-04-24 07:41:11 51°12.268 2°48.736 251.2 3.2 250 9.6
2009-04-24 07:42:11 51°12.251 2°48.657 257.5 3.2 253 9.7
2009-04-24 07:43:11 51°12.236 2°48.581 257.2 2.8 251 9.8
2009-04-24 07:44:11 51°12.221 2°48.517 249.2 2.4 247 9.9
2009-04-24 07:45:11 51°12.205 2°48.464 244.1 2.1 244 9.9
2009-04-24 07:46:11 51°12.181 2°48.409 214.9 2.8 225 9.9
2009-04-24 07:47:11 51°12.139 2°48.374 170.3 2.8 192 9.7
2009-04-24 07:48:11 51°12.1 2°48.382 119 2 145 9.4
2009-04-24 07:49:11 51°12.093 2°48.416 66.4 0.8 73 9.3
2009-04-24 07:50:11 51°12.099 2°48.423 50.8 0.4 354 9.3
2009-04-24 07:51:11 51°12.105 2°48.417 45.6 0.5 311 9.4
2009-04-24 07:52:11 51°12.108 2°48.403 45.8 0.6 283 9.5
2009-04-24 07:53:11 51°12.11 2°48.389 46.7 0.5 322 9.6
2009-04-24 07:54:11 51°12.127 2°48.415 62.9 2.4 62 9.5
2009-04-24 07:55:11 51°12.147 2°48.503 67.7 4.5 68 9.5
2009-04-24 07:56:11 51°12.172 2°48.61 72.7 2.8 76 9.4
2009-04-24 07:57:11 51°12.175 2°48.643 73.7 0.8 89 9.4
2009-04-24 07:58:11 51°12.177 2°48.654 69 0.2 69 9.4
2009-04-24 07:59:11 51°12.179 2°48.653 63.5 0.3 294 9.4
2009-04-24 08:00:11 51°12.181 2°48.642 60 0.5 276 9.5
2009-04-24 08:01:11 51°12.181 2°48.627 59.2 0.6 268 9.5
2009-04-24 08:02:11 51°12.179 2°48.608 55.8 0.8 263 9.6
2009-04-24 08:03:11 51°12.177 2°48.585 52.8 0.9 264 9.6
2009-04-24 08:04:11 51°12.175 2°48.559 52.5 0.9 252 9.7
2009-04-24 08:05:11 51°12.172 2°48.532 53.5 1 258 9.8
2009-04-24 08:06:11 51°12.169 2°48.505 55.9 1 257 9.8
2009-04-24 08:07:11 51°12.168 2°48.489 66.3 0.7 53 9.8
2009-04-24 08:08:11 51°12.197 2°48.564 59.5 5.7 57 9.9
2009-04-24 08:09:11 51°12.255 2°48.718 60.9 7.3 60 10
2009-04-24 08:10:11 51°12.316 2°48.89 62 7.5 61 9.8
2009-04-24 08:11:11 51°12.371 2°49.066 65.4 7.5 64 9.7
2009-04-24 08:12:11 51°12.438 2°49.231 54.6 7.5 52 9.8
2009-04-24 08:13:11 51°12.526 2°49.372 48.5 7.5 47 10.1
2009-04-24 08:14:11 51°12.592 2°49.536 60.3 7.4 58 10.2
2009-04-24 08:15:11 51°12.662 2°49.699 53.2 7.5 50 10.1
2009-04-24 08:16:11 51°12.734 2°49.859 57.8 7.4 55 10.2
2009-04-24 08:17:11 51°12.801 2°50.025 59.8 7.5 58 10.2
2009-04-24 08:18:11 51°12.873 2°50.188 55.8 7.5 54 10.4
2009-04-24 08:19:11 51°12.93 2°50.361 66.9 7.4 67 10.2
2009-04-24 08:20:11 51°12.979 2°50.542 67.2 7.4 67 10.2
2009-04-24 08:21:11 51°13.038 2°50.715 61 7.4 60 10.1
2009-04-24 08:22:11 51°13.1 2°50.874 58.9 6.9 57 10.1
2009-04-24 08:23:11 51°13.159 2°51.03 61.6 6.8 61 10.1
2009-04-24 08:24:11 51°13.216 2°51.186 61.1 6.8 61 10
2009-04-24 08:25:11 51°13.276 2°51.339 59.8 6.9 59 10
2009-04-24 08:26:11 51°13.334 2°51.497 58.9 6.9 57 10.1
2009-04-24 08:27:11 51°13.393 2°51.652 61.1 6.9 60 10.1
2009-04-24 08:28:11 51°13.453 2°51.816 61.1 7.3 60 10.1
2009-04-24 08:29:11 51°13.516 2°51.983 59.5 7.3 58 10
2009-04-24 08:30:11 51°13.58 2°52.151 60.4 7.4 59 10
2009-04-24 08:31:11 51°13.643 2°52.318 57.8 7.4 55 9.9
2009-04-24 08:32:11 51°13.72 2°52.469 51.1 7.3 48 10
2009-04-24 08:33:11 51°13.798 2°52.617 53.1 7.4 51 9.9
2009-04-24 08:34:11 51°13.875 2°52.767 53.2 7.4 51 10
2009-04-24 08:35:11 51°13.952 2°52.92 53.4 7.3 51 9.9
2009-04-24 08:36:11 51°14.029 2°53.073 53.8 7.4 51 9.9
2009-04-24 08:37:11 51°14.1 2°53.218 54.4 6 52 9.8
2009-04-24 08:38:11 51°14.156 2°53.332 54.7 5.1 52 9.8
2009-04-24 08:39:11 51°14.207 2°53.434 54.6 4.8 52 9.7
2009-04-24 08:40:11 51°14.254 2°53.538 58.3 4.8 56 9.7
2009-04-24 08:41:11 51°14.295 2°53.641 60.4 5 58 9.6
2009-04-24 08:42:11 51°14.342 2°53.765 59.8 5.6 58 9.6
2009-04-24 08:43:11 51°14.39 2°53.893 63.3 5.5 64 9.7
2009-04-24 08:44:11 51°14.422 2°54.03 71.3 5.5 72 9.7
2009-04-24 08:45:11 51°14.446 2°54.178 79.1 6.4 80 9.7
2009-04-24 08:46:11 51°14.456 2°54.36 86.9 7.2 87 10.4
2009-04-24 08:47:11 51°14.453 2°54.554 93.2 7.4 95 10.3
2009-04-24 08:48:11 51°14.432 2°54.753 102 8 104 10.4
2009-04-24 08:49:11 51°14.384 2°54.957 115.6 8.4 116 9.9
2009-04-24 08:50:11 51°14.31 2°55.148 128.4 7.9 128 10.4
2009-04-24 08:51:12 51°14.235 2°55.279 138.6 5.6 140 10.5
2009-04-24 08:52:11 51°14.165 2°55.365 141.7 5.5 143 10.2
2009-04-24 08:53:11 51°14.099 2°55.465 133 5.5 133 10.4
2009-04-24 08:54:11 51°14.047 2°55.562 128.8 4.2 126 10.1
2009-04-24 08:55:11 51°14.008 2°55.633 145.4 3.6 150 10.6
2009-04-24 08:56:11 51°13.974 2°55.644 196.5 0.3 179 11
2009-04-24 08:57:11 51°13.961 2°55.619 247.2 1.3 250 10.9
2009-04-24 08:58:14 51°13.961 2°55.632 280.1 0.3 299 -999
2009-04-24 08:59:14 51°13.967 2°55.578 281 2.7 285 10.7
2009-04-24 09:00:12 51°13.98 2°55.509 288 1.7 285 9.7
2009-04-24 09:01:11 51°13.987 2°55.486 296 1.6 296 8.9
2009-04-24 09:02:11 51°13.996 2°55.466 310.8 0.5 311 6.8
2009-04-24 09:03:11 51°13.999 2°55.462 316.5 0.2 332 6.8
2009-04-24 09:04:11 51°14.001 2°55.458 317.3 0.1 239 6.5
2009-04-24 09:05:11 51°14 2°55.455 329.2 0.1 242 5.6
2009-04-24 09:06:11 51°13.999 2°55.454 341.1 -999 166 5
2009-04-24 09:07:11 51°13.999 2°55.453 349.3 -999 261 5.2
2009-04-24 09:08:11 51°13.999 2°55.452 347.1 -999 233 5.1
2009-04-24 09:09:11 51°13.999 2°55.452 347.2 -999 236 5
2009-04-24 09:10:11 51°14 2°55.452 347.2 -999 17 5
2009-04-24 09:11:11 51°14 2°55.451 346.3 -999 93 5
2009-04-24 09:12:11 51°14 2°55.452 346.7 -999 226 5
2009-04-24 09:13:11 51°14.001 2°55.452 346.4 -999 93 5.1
2009-04-24 09:14:11 51°14.001 2°55.452 346.4 -999 99 5.1
2009-04-24 09:15:11 51°14.001 2°55.452 346.4 -999 80 5.1
2009-04-24 09:16:11 51°14 2°55.452 346.4 -999 237 5.1
2009-04-24 09:17:11 51°14 2°55.452 346.3 -999 148 5.1
2009-04-24 09:18:11 51°14 2°55.452 346.3 -999 264 5.1
2009-04-24 09:19:15 51°14 2°55.453 346.3 -999 86 5.2
2009-04-24 09:20:15 51°14 2°55.453 346.3 -999 78 -999
2009-04-24 09:21:15 51°14 2°55.452 346.2 -999 105 -999
2009-04-24 09:22:15 51°14 2°55.452 346.2 -999 152 -999
2009-04-24 09:23:15 51°14 2°55.452 346.2 -999 134 -999
2009-04-24 09:24:15 51°14 2°55.452 346.3 -999 106 -999
2009-04-24 09:25:15 51°14 2°55.453 346.2 -999 135 -999
2009-04-24 09:26:15 51°14 2°55.453 346.3 -999 312 -999
2009-04-24 09:27:15 51°14 2°55.453 346.2 -999 236 -999
2009-04-24 09:28:15 51°14 2°55.452 346.2 -999 265 -999
2009-04-24 09:29:15 51°14 2°55.452 346.3 -999 115 -999
2009-04-24 09:30:15 51°14 2°55.453 346.1 -999 162 -999
2009-04-24 09:31:15 51°14 2°55.453 346.1 -999 214 -999
2009-04-24 09:32:15 51°14.001 2°55.453 346.1 -999 169 -999
2009-04-24 09:33:15 51°14.001 2°55.454 346.2 -999 215 -999
2009-04-24 09:34:15 51°14.001 2°55.453 346.1 -999 156 -999
2009-04-24 09:35:15 51°14.001 2°55.453 346.2 -999 231 -999
2009-04-24 09:36:15 51°14.001 2°55.452 346.1 -999 161 -999
2009-04-24 09:37:15 51°14.001 2°55.453 346 -999 298 -999
2009-04-24 09:38:15 51°14 2°55.453 346 -999 70 -999
2009-04-24 09:39:15 51°14 2°55.453 346 -999 54 -999
2009-04-24 09:40:15 51°14 2°55.453 346 -999 253 -999
2009-04-24 09:41:15 51°14 2°55.453 345.9 -999 137 -999
2009-04-24 09:42:15 51°14 2°55.453 345.8 -999 350 -999
2009-04-24 09:43:15 51°14 2°55.453 345.7 -999 100 -999
2009-04-24 09:44:15 51°14 2°55.452 345.8 -999 327 -999
2009-04-24 09:45:15 51°14 2°55.452 345.8 -999 175 -999
2009-04-24 09:46:15 51°14 2°55.452 345.7 -999 108 -999
2009-04-24 09:47:15 51°14 2°55.453 345.8 -999 282 -999
2009-04-24 09:48:15 51°13.999 2°55.452 345.8 -999 105 -999
2009-04-24 09:49:15 51°14 2°55.454 345.7 -999 81 -999
2009-04-24 09:50:15 51°14 2°55.453 345.7 -999 298 -999
2009-04-24 09:51:15 51°14 2°55.453 345.8 -999 356 -999
2009-04-24 09:52:15 51°14 2°55.453 345.7 -999 286 -999
2009-04-24 09:53:15 51°13.999 2°55.453 345.7 -999 141 -999
2009-04-24 09:54:15 51°14 2°55.453 345.7 -999 67 -999
2009-04-24 09:55:15 51°14 2°55.453 345.6 -999 311 -999
2009-04-24 09:56:15 51°14 2°55.453 345.6 -999 193 -999
2009-04-24 09:57:15 51°14 2°55.453 345.6 -999 21 -999
2009-04-24 09:58:15 51°14 2°55.453 345.7 -999 146 -999
2009-04-24 09:59:15 51°14 2°55.453 345.6 -999 82 -999
2009-04-24 10:00:15 51°13.999 2°55.453 345.6 -999 185 -999
2009-04-24 10:01:15 51°13.999 2°55.453 345.6 -999 159 -999
2009-04-24 10:02:15 51°13.999 2°55.453 345.6 -999 106 -999
2009-04-24 10:03:15 51°13.999 2°55.454 345.6 -999 357 -999
2009-04-24 10:04:15 51°13.999 2°55.454 345.7 -999 148 -999
2009-04-24 10:05:15 51°13.999 2°55.453 345.7 -999 142 -999
2009-04-24 10:06:15 51°13.999 2°55.455 345.7 -999 180 -999
2009-04-24 10:07:15 51°14 2°55.453 345.8 -999 117 -999
2009-04-24 10:08:15 51°14 2°55.453 345.8 -999 140 -999
2009-04-24 10:09:15 51°14 2°55.454 345.8 -999 18 -999
2009-04-24 10:10:15 51°13.999 2°55.453 345.9 -999 41 -999
2009-04-24 10:11:15 51°14 2°55.455 346 -999 141 -999
2009-04-24 10:12:15 51°14 2°55.455 346 -999 219 -999
2009-04-24 10:13:15 51°14 2°55.455 346 -999 135 -999
2009-04-24 10:14:15 51°14 2°55.455 346 -999 244 -999
2009-04-24 10:15:15 51°14 2°55.454 345.9 -999 19 -999
2009-04-24 10:16:15 51°14 2°55.454 345.9 -999 273 -999
2009-04-24 10:17:15 51°14 2°55.454 345.9 -999 140 -999
2009-04-24 10:18:15 51°14 2°55.454 346 -999 40 -999
2009-04-24 10:19:15 51°14 2°55.454 346.1 -999 146 -999
2009-04-24 10:20:15 51°14 2°55.453 346.1 -999 135 -999
2009-04-24 10:21:15 51°14 2°55.452 345.7 -999 143 -999
2009-04-24 10:22:15 51°14 2°55.452 346 -999 277 -999
2009-04-24 10:23:15 51°14 2°55.452 346.1 -999 99 -999
2009-04-24 10:24:15 51°14 2°55.452 346.3 -999 237 -999
2009-04-24 10:25:15 51°14 2°55.452 346 -999 -999 -999
2009-04-24 10:26:15 51°14 2°55.453 346 -999 234 -999
2009-04-24 10:27:15 51°14 2°55.452 346 -999 7 -999
2009-04-24 10:28:15 51°14 2°55.452 346 -999 157 -999
2009-04-24 10:29:15 51°13.999 2°55.453 346.1 -999 192 -999
2009-04-24 10:30:15 51°14 2°55.452 346.2 -999 228 -999
2009-04-24 10:31:15 51°14 2°55.452 346.2 -999 338 -999
2009-04-24 10:32:15 51°14 2°55.453 346.2 -999 283 -999
2009-04-24 10:33:15 51°14 2°55.453 346.3 -999 21 -999
2009-04-24 10:34:15 51°14 2°55.453 346.3 -999 34 -999
2009-04-24 10:35:15 51°14 2°55.452 346.3 -999 131 -999
2009-04-24 10:36:15 51°14 2°55.452 346.3 -999 86 -999
2009-04-24 10:37:15 51°14 2°55.452 346.3 -999 246 -999
2009-04-24 10:38:15 51°14 2°55.452 346.3 -999 336 -999
2009-04-24 10:39:15 51°14 2°55.453 346.3 -999 266 -999
2009-04-24 10:40:15 51°14 2°55.452 346.3 -999 265 -999
2009-04-24 10:41:15 51°14 2°55.452 346.3 -999 187 -999
2009-04-24 10:42:15 51°14 2°55.452 346.3 -999 112 -999
2009-04-24 10:43:15 51°14.001 2°55.452 346.3 -999 125 -999
2009-04-24 10:44:15 51°14.001 2°55.453 346.3 -999 39 -999
2009-04-24 10:45:15 51°14.001 2°55.453 346.2 -999 194 -999
2009-04-24 10:46:15 51°14 2°55.453 346.2 -999 197 -999
2009-04-24 10:47:15 51°14 2°55.453 346.3 -999 230 -999
2009-04-24 10:48:15 51°14 2°55.452 346.3 -999 213 -999
2009-04-24 10:49:15 51°14 2°55.453 346.3 -999 268 -999
2009-04-24 10:50:15 51°14 2°55.453 346.3 -999 192 -999
2009-04-24 10:51:15 51°14 2°55.454 346.2 -999 95 -999
2009-04-24 10:52:15 51°14 2°55.452 346.3 -999 237 -999
2009-04-24 10:53:15 51°14 2°55.453 346.3 -999 301 -999
2009-04-24 10:54:15 51°14 2°55.453 346.3 -999 317 -999
2009-04-24 10:55:15 51°14 2°55.453 346.2 -999 221 -999
2009-04-24 10:56:15 51°14 2°55.452 346.3 -999 225 -999
2009-04-24 10:57:15 51°14 2°55.453 346.3 -999 257 -999
2009-04-24 10:58:15 51°14 2°55.452 346.2 -999 116 -999
2009-04-24 10:59:15 51°14 2°55.453 346.3 -999 157 -999
2009-04-24 11:00:15 51°14 2°55.453 346.3 -999 148 -999
2009-04-24 11:01:15 51°13.999 2°55.452 346 -999 333 -999
2009-04-24 11:02:15 51°13.999 2°55.452 346.4 -999 101 -999
2009-04-24 11:03:15 51°13.999 2°55.453 346.9 -999 89 -999
2009-04-24 11:04:15 51°13.999 2°55.455 355.3 0.1 111 -999
2009-04-24 11:05:15 51°14.005 2°55.454 356.3 2.7 354 -999
2009-04-24 11:06:15 51°14.114 2°55.419 339.7 8.6 340 -999
2009-04-24 11:07:15 51°14.24 2°55.29 315.8 9.3 316 -999
2009-04-24 11:08:15 51°14.345 2°55.103 311 9.6 309 -999
2009-04-24 11:09:15 51°14.448 2°54.922 295.9 8.7 308 -999
2009-04-24 11:10:15 51°14.515 2°54.729 281.7 8.1 293 -999
2009-04-24 11:11:15 51°14.558 2°54.527 277 8 287 -999
2009-04-24 11:12:15 51°14.593 2°54.327 290.4 7 297 -999
2009-04-24 11:13:15 51°14.69 2°54.272 5.1 6.7 12 -999
2009-04-24 11:14:15 51°14.779 2°54.391 78.5 7.7 65 -999
2009-04-24 11:15:15 51°14.756 2°54.593 142.1 8.4 124 -999
2009-04-24 11:16:15 51°14.658 2°54.768 149.9 9.1 134 -999
2009-04-24 11:17:15 51°14.543 2°54.928 155.8 9.2 143 -999
2009-04-24 11:18:15 51°14.418 2°55.064 158.6 9.1 148 -999
2009-04-24 11:19:15 51°14.295 2°55.196 136.5 9 138 -999
2009-04-24 11:20:15 51°14.185 2°55.352 144.6 8.4 143 -999
2009-04-24 11:21:15 51°14.07 2°55.454 155.3 7.6 155 -999
2009-04-24 11:22:15 51°13.959 2°55.532 156 7.1 155 -999
2009-04-24 11:23:15 51°13.856 2°55.609 154.5 6.5 154 -999
2009-04-24 11:24:15 51°13.771 2°55.695 135.6 5.1 137 -999
2009-04-24 11:25:15 51°13.722 2°55.782 129.2 3.9 129 -999
2009-04-24 11:26:15 51°13.694 2°55.857 116.9 3.1 115 -999
2009-04-24 11:27:15 51°13.677 2°55.919 119.9 1.9 114 -999
2009-04-24 11:28:15 51°13.665 2°55.954 123.4 0.8 121 -999
2009-04-24 11:29:15 51°13.662 2°55.959 124.2 0.1 103 -999